TimeEDT,TemperatureF,Dew PointF,Humidity,Sea Level PressureIn,VisibilityMPH,Wind Direction,Wind SpeedMPH,Gust SpeedMPH,PrecipitationIn,Events,Conditions,WindDirDegrees,DateUTC
12:00 AM,73.4,69.8,88,30.27,9.0,South,3.5,-,N/A,,Clear,190,2013-07-15 04:00:00
1:00 AM,71.6,69.8,94,30.27,9.0,Calm,Calm,-,N/A,,Clear,0,2013-07-15 05:00:00
2:00 AM,63,57,76,30.08,,South,1.2,,,,,170,2013-07-15 06:00:00
2:00 AM,69.8,68.0,94,30.27,9.0,ESE,3.5,-,N/A,,Clear,120,2013-07-15 06:00:00
3:00 AM,69.8,68.0,94,30.27,9.0,Calm,Calm,-,N/A,,Clear,0,2013-07-15 07:00:00
4:00 AM,68.0,68.0,100,30.27,9.0,NNE,2.3,-,N/A,,Clear,20,2013-07-15 08:00:00
5:00 AM,68.0,68.0,100,30.28,7.0,Calm,Calm,-,N/A,,Clear,0,2013-07-15 09:00:00
6:00 AM,68.0,68.0,100,30.28,7.0,SSE,2.3,-,N/A,,Clear,160,2013-07-15 10:00:00
6:54 AM,69.8,68.0,94,30.30,5.0,Calm,Calm,-,N/A,,Clear,0,2013-07-15 10:54:00
7:00 AM,69.8,68.0,94,30.30,4.0,Calm,Calm,-,N/A,,Clear,0,2013-07-15 11:00:00
7:05 AM,69.8,69.8,100,30.30,6.0,Calm,Calm,-,N/A,,Clear,0,2013-07-15 11:05:00
8:00 AM,78,60,44,30.06,,SW,2.3,,,,,230,2013-07-15 12:00:00
8:00 AM,75.2,69.8,83,30.31,9.0,SE,2.3,-,N/A,,Clear,140,2013-07-15 12:00:00
9:00 AM,78.8,69.8,74,30.31,9.0,Variable,2.3,-,N/A,,Clear,0,2013-07-15 13:00:00
9:34 AM,80.6,69.8,70,30.31,5.0,NNE,3.5,-,N/A,,Haze,20,2013-07-15 13:34:00
9:43 AM,80.6,71.6,74,30.31,6.0,NNE,3.5,-,N/A,,Haze,20,2013-07-15 13:43:00
10:00 AM,82.4,69.8,66,30.31,9.0,North,3.5,-,N/A,,Clear,10,2013-07-15 14:00:00
11:00 AM,82.4,69.8,66,30.31,9.0,North,4.6,-,N/A,,Clear,360,2013-07-15 15:00:00
12:00 PM,84.2,69.8,62,30.31,9.0,NNE,5.8,-,N/A,,Clear,30,2013-07-15 16:00:00
1:00 PM,84.2,68.0,58,30.30,9.0,North,8.1,-,N/A,,Clear,360,2013-07-15 17:00:00
2:00 PM,94,56,19,29.97,,West,3.5,,,,,280,2013-07-15 18:00:00
2:00 PM,84.2,69.8,62,30.29,9.0,North,10.4,-,N/A,,Partly Cloudy,10,2013-07-15 18:00:00
3:00 PM,84.2,71.6,66,30.28,9.0,NNE,10.4,-,N/A,,Clear,30,2013-07-15 19:00:00
4:00 PM,84.2,73.4,70,30.27,9.0,NNE,9.2,-,N/A,,Clear,20,2013-07-15 20:00:00
4:50 PM,82.4,71.6,70,30.26,9.0,NE,10.4,-,N/A,Thunderstorm,Scattered Clouds,40,2013-07-15 20:50:00
5:00 PM,82.4,71.6,70,30.26,9.0,NNE,11.5,-,N/A,Thunderstorm,Partly Cloudy,30,2013-07-15 21:00:00
5:06 PM,82.4,71.6,70,30.27,9.0,NE,10.4,-,N/A,,Scattered Clouds,40,2013-07-15 21:06:00
5:56 PM,80.6,71.6,74,30.25,9.0,NE,6.9,-,N/A,Thunderstorm,Mostly Cloudy,40,2013-07-15 21:56:00
6:00 PM,80.6,69.8,70,30.25,9.0,NE,6.9,-,N/A,Thunderstorm,Mostly Cloudy,40,2013-07-15 22:00:00
6:37 PM,78.8,71.6,78,30.26,9.0,NE,5.8,-,N/A,,Overcast,50,2013-07-15 22:37:00
7:00 PM,80.6,69.8,70,30.26,9.0,Calm,Calm,-,N/A,,Mostly Cloudy,0,2013-07-15 23:00:00
8:00 PM,81,59,36,30.02,,North,4.6,,,,,350,2013-07-16 00:00:00
8:00 PM,80.6,73.4,79,30.27,9.0,SW,5.8,-,N/A,,Mostly Cloudy,220,2013-07-16 00:00:00
9:00 PM,78.8,73.4,83,30.25,9.0,South,2.3,-,N/A,,Clear,180,2013-07-16 01:00:00
9:25 PM,78.8,73.4,83,30.24,3.0,Variable,2.3,-,N/A,,Haze,0,2013-07-16 01:25:00
9:27 PM,78.8,73.4,83,30.24,3.0,Variable,2.3,-,N/A,Rain,Light Rain,0,2013-07-16 01:27:00
9:35 PM,78.8,73.4,83,30.25,7.0,Calm,Calm,-,N/A,Rain,Light Rain,0,2013-07-16 01:35:00
9:36 PM,78.8,73.4,83,30.25,4.0,Calm,Calm,-,N/A,Rain,Light Rain,0,2013-07-16 01:36:00
9:42 PM,78.8,73.4,83,30.25,3.0,Calm,Calm,-,N/A,,Haze,0,2013-07-16 01:42:00
9:47 PM,77.0,73.4,89,30.26,6.0,Variable,3.5,-,N/A,,Haze,0,2013-07-16 01:47:00
9:51 PM,77.0,73.4,89,30.25,7.0,NNE,3.5,-,N/A,Rain,Light Rain,20,2013-07-16 01:51:00
10:00 PM,77.0,73.4,89,30.26,9.0,Calm,Calm,-,N/A,Rain,Light Rain,0,2013-07-16 02:00:00
10:13 PM,77.0,75.2,94,30.26,9.0,Calm,Calm,-,N/A,,Clear,0,2013-07-16 02:13:00
11:00 PM,75.2,73.4,94,30.26,9.0,Calm,Calm,-,N/A,,Clear,0,2013-07-16 03:00:00
11:22 PM,75.2,73.4,94,30.26,5.0,ENE,3.5,-,N/A,,Clear,60,2013-07-16 03:22:00
11:41 PM,75.2,73.4,94,30.27,6.0,Calm,Calm,-,N/A,,Clear,0,2013-07-16 03:41:00